sensor_id;sensor_type;location;lat;lon;timestamp;temperature;humidity
71098;SHT35;58754;47.622;-2.986;2023-07-31T00:01:30;25.08;63.79
71098;SHT35;58754;47.622;-2.986;2023-07-31T00:03:56;25.07;63.78
71098;SHT35;58754;47.622;-2.986;2023-07-31T00:06:21;25.10;63.88
71098;SHT35;58754;47.622;-2.986;2023-07-31T00:08:47;25.11;63.94
71098;SHT35;58754;47.622;-2.986;2023-07-31T00:11:13;25.10;64.01
71098;SHT35;58754;47.622;-2.986;2023-07-31T00:13:38;25.11;64.01
71098;SHT35;58754;47.622;-2.986;2023-07-31T00:16:05;25.11;64.10
71098;SHT35;58754;47.622;-2.986;2023-07-31T00:18:31;25.11;64.22
71098;SHT35;58754;47.622;-2.986;2023-07-31T00:20:56;25.12;64.21
71098;SHT35;58754;47.622;-2.986;2023-07-31T00:23:22;25.11;64.31
71098;SHT35;58754;47.622;-2.986;2023-07-31T00:25:48;25.11;64.39
71098;SHT35;58754;47.622;-2.986;2023-07-31T00:28:13;25.12;64.56
71098;SHT35;58754;47.622;-2.986;2023-07-31T00:30:39;25.14;64.61
71098;SHT35;58754;47.622;-2.986;2023-07-31T00:33:05;25.12;64.68
71098;SHT35;58754;47.622;-2.986;2023-07-31T00:35:31;25.14;64.73
71098;SHT35;58754;47.622;-2.986;2023-07-31T00:37:58;25.15;64.90
71098;SHT35;58754;47.622;-2.986;2023-07-31T00:40:23;25.17;64.93
71098;SHT35;58754;47.622;-2.986;2023-07-31T00:42:50;25.18;65.04
71098;SHT35;58754;47.622;-2.986;2023-07-31T00:45:16;25.17;65.15
71098;SHT35;58754;47.622;-2.986;2023-07-31T00:47:41;25.17;65.16
71098;SHT35;58754;47.622;-2.986;2023-07-31T00:50:07;25.19;65.18
71098;SHT35;58754;47.622;-2.986;2023-07-31T00:52:35;25.19;65.23
71098;SHT35;58754;47.622;-2.986;2023-07-31T00:55:01;25.21;65.32
71098;SHT35;58754;47.622;-2.986;2023-07-31T00:57:27;25.24;65.33
71098;SHT35;58754;47.622;-2.986;2023-07-31T00:59:53;25.21;65.37
71098;SHT35;58754;47.622;-2.986;2023-07-31T01:02:18;25.21;65.46
71098;SHT35;58754;47.622;-2.986;2023-07-31T01:04:44;25.27;65.57
71098;SHT35;58754;47.622;-2.986;2023-07-31T01:07:22;25.25;65.79
71098;SHT35;58754;47.622;-2.986;2023-07-31T01:10:08;25.24;65.72
71098;SHT35;58754;47.622;-2.986;2023-07-31T01:12:38;25.27;65.91
71098;SHT35;58754;47.622;-2.986;2023-07-31T01:15:05;25.27;65.94
71098;SHT35;58754;47.622;-2.986;2023-07-31T01:17:31;25.25;65.89
71098;SHT35;58754;47.622;-2.986;2023-07-31T01:20:01;25.27;65.93
71098;SHT35;58754;47.622;-2.986;2023-07-31T01:27:59;25.28;65.99
71098;SHT35;58754;47.622;-2.986;2023-07-31T01:30:28;25.28;66.15
71098;SHT35;58754;47.622;-2.986;2023-07-31T01:32:59;25.29;66.15
71098;SHT35;58754;47.622;-2.986;2023-07-31T01:35:27;25.32;66.23
71098;SHT35;58754;47.622;-2.986;2023-07-31T01:37:53;25.31;66.27
71098;SHT35;58754;47.622;-2.986;2023-07-31T01:40:19;25.34;66.24
71098;SHT35;58754;47.622;-2.986;2023-07-31T01:42:45;25.31;66.34
71098;SHT35;58754;47.622;-2.986;2023-07-31T01:45:11;25.32;66.40
71098;SHT35;58754;47.622;-2.986;2023-07-31T01:47:37;25.35;66.36
71098;SHT35;58754;47.622;-2.986;2023-07-31T01:50:03;25.34;66.42
71098;SHT35;58754;47.622;-2.986;2023-07-31T01:52:28;25.35;66.40
71098;SHT35;58754;47.622;-2.986;2023-07-31T01:54:55;25.36;66.45
71098;SHT35;58754;47.622;-2.986;2023-07-31T01:57:21;25.38;66.45
71098;SHT35;58754;47.622;-2.986;2023-07-31T01:59:46;25.38;66.53
71098;SHT35;58754;47.622;-2.986;2023-07-31T02:02:12;25.39;66.54
71098;SHT35;58754;47.622;-2.986;2023-07-31T02:04:38;25.36;66.57
71098;SHT35;58754;47.622;-2.986;2023-07-31T02:07:05;25.38;66.56
71098;SHT35;58754;47.622;-2.986;2023-07-31T02:09:31;25.38;66.56
71098;SHT35;58754;47.622;-2.986;2023-07-31T02:11:56;25.41;66.56
71098;SHT35;58754;47.622;-2.986;2023-07-31T02:14:22;25.42;66.56
71098;SHT35;58754;47.622;-2.986;2023-07-31T02:16:48;25.39;66.57
71098;SHT35;58754;47.622;-2.986;2023-07-31T02:19:13;25.41;66.61
71098;SHT35;58754;47.622;-2.986;2023-07-31T02:21:39;25.41;66.66
71098;SHT35;58754;47.622;-2.986;2023-07-31T02:24:05;25.43;66.67
71098;SHT35;58754;47.622;-2.986;2023-07-31T02:26:30;25.42;66.69
71098;SHT35;58754;47.622;-2.986;2023-07-31T02:28:56;25.46;66.66
71098;SHT35;58754;47.622;-2.986;2023-07-31T02:31:22;25.43;66.63
71098;SHT35;58754;47.622;-2.986;2023-07-31T02:33:47;25.43;66.73
71098;SHT35;58754;47.622;-2.986;2023-07-31T02:36:13;25.46;66.72
71098;SHT35;58754;47.622;-2.986;2023-07-31T02:38:40;25.47;66.72
71098;SHT35;58754;47.622;-2.986;2023-07-31T02:41:06;25.47;66.72
71098;SHT35;58754;47.622;-2.986;2023-07-31T02:43:31;25.46;66.82
71098;SHT35;58754;47.622;-2.986;2023-07-31T02:45:57;25.45;66.76
71098;SHT35;58754;47.622;-2.986;2023-07-31T02:48:23;25.50;66.78
71098;SHT35;58754;47.622;-2.986;2023-07-31T02:50:49;25.49;66.85
71098;SHT35;58754;47.622;-2.986;2023-07-31T02:53:14;25.47;66.86
71098;SHT35;58754;47.622;-2.986;2023-07-31T02:55:41;25.47;66.83
71098;SHT35;58754;47.622;-2.986;2023-07-31T02:58:07;25.49;66.95
71098;SHT35;58754;47.622;-2.986;2023-07-31T03:00:32;25.52;66.94
71098;SHT35;58754;47.622;-2.986;2023-07-31T03:02:58;25.50;66.90
71098;SHT35;58754;47.622;-2.986;2023-07-31T03:05:24;25.50;66.96
71098;SHT35;58754;47.622;-2.986;2023-07-31T03:07:50;25.47;66.94
71098;SHT35;58754;47.622;-2.986;2023-07-31T03:10:15;25.53;66.96
71098;SHT35;58754;47.622;-2.986;2023-07-31T03:12:41;25.52;66.90
71098;SHT35;58754;47.622;-2.986;2023-07-31T03:15:07;25.54;66.92
71098;SHT35;58754;47.622;-2.986;2023-07-31T03:17:33;25.52;66.94
71098;SHT35;58754;47.622;-2.986;2023-07-31T03:19:59;25.54;66.91
71098;SHT35;58754;47.622;-2.986;2023-07-31T03:22:24;25.54;66.90
71098;SHT35;58754;47.622;-2.986;2023-07-31T03:24:50;25.53;66.92
71098;SHT35;58754;47.622;-2.986;2023-07-31T03:27:16;25.56;66.87
71098;SHT35;58754;47.622;-2.986;2023-07-31T03:29:42;25.53;66.89
71098;SHT35;58754;47.622;-2.986;2023-07-31T03:32:07;25.54;66.93
71098;SHT35;58754;47.622;-2.986;2023-07-31T03:34:33;25.56;66.90
71098;SHT35;58754;47.622;-2.986;2023-07-31T03:36:59;25.56;66.99
71098;SHT35;58754;47.622;-2.986;2023-07-31T03:39:25;25.56;66.98
71098;SHT35;58754;47.622;-2.986;2023-07-31T03:41:50;25.58;66.98
71098;SHT35;58754;47.622;-2.986;2023-07-31T03:44:16;25.56;66.98
71098;SHT35;58754;47.622;-2.986;2023-07-31T03:46:42;25.58;67.05
71098;SHT35;58754;47.622;-2.986;2023-07-31T03:49:07;25.58;67.05
71098;SHT35;58754;47.622;-2.986;2023-07-31T03:51:33;25.58;67.11
71098;SHT35;58754;47.622;-2.986;2023-07-31T03:53:59;25.58;67.18
71098;SHT35;58754;47.622;-2.986;2023-07-31T03:56:25;25.59;67.13
71098;SHT35;58754;47.622;-2.986;2023-07-31T03:58:51;25.58;67.19
71098;SHT35;58754;47.622;-2.986;2023-07-31T04:01:16;25.59;67.21
71098;SHT35;58754;47.622;-2.986;2023-07-31T04:03:43;25.59;67.22
71098;SHT35;58754;47.622;-2.986;2023-07-31T04:06:08;25.58;67.23
71098;SHT35;58754;47.622;-2.986;2023-07-31T04:08:35;25.60;67.24
71098;SHT35;58754;47.622;-2.986;2023-07-31T04:11:01;25.58;67.23
71098;SHT35;58754;47.622;-2.986;2023-07-31T04:13:29;25.59;67.22
71098;SHT35;58754;47.622;-2.986;2023-07-31T04:15:55;25.62;67.20
71098;SHT35;58754;47.622;-2.986;2023-07-31T04:18:21;25.62;67.27
71098;SHT35;58754;47.622;-2.986;2023-07-31T04:20:47;25.59;67.27
71098;SHT35;58754;47.622;-2.986;2023-07-31T04:23:13;25.58;67.24
71098;SHT35;58754;47.622;-2.986;2023-07-31T04:25:38;25.60;67.31
71098;SHT35;58754;47.622;-2.986;2023-07-31T04:28:04;25.60;67.29
71098;SHT35;58754;47.622;-2.986;2023-07-31T04:30:30;25.62;67.33
71098;SHT35;58754;47.622;-2.986;2023-07-31T04:32:55;25.63;67.37
71098;SHT35;58754;47.622;-2.986;2023-07-31T04:35:21;25.60;67.36
71098;SHT35;58754;47.622;-2.986;2023-07-31T04:37:47;25.62;67.34
71098;SHT35;58754;47.622;-2.986;2023-07-31T04:40:15;25.65;67.41
71098;SHT35;58754;47.622;-2.986;2023-07-31T04:42:41;25.65;67.35
71098;SHT35;58754;47.622;-2.986;2023-07-31T04:45:08;25.63;67.44
71098;SHT35;58754;47.622;-2.986;2023-07-31T04:47:34;25.65;67.44
71098;SHT35;58754;47.622;-2.986;2023-07-31T04:50:00;25.63;67.42
71098;SHT35;58754;47.622;-2.986;2023-07-31T04:52:25;25.62;67.45
71098;SHT35;58754;47.622;-2.986;2023-07-31T04:54:51;25.63;67.50
71098;SHT35;58754;47.622;-2.986;2023-07-31T04:57:17;25.65;67.58
71098;SHT35;58754;47.622;-2.986;2023-07-31T04:59:42;25.62;67.55
71098;SHT35;58754;47.622;-2.986;2023-07-31T05:02:08;25.62;67.53
71098;SHT35;58754;47.622;-2.986;2023-07-31T05:04:34;25.63;67.61
71098;SHT35;58754;47.622;-2.986;2023-07-31T05:07:00;25.63;67.65
71098;SHT35;58754;47.622;-2.986;2023-07-31T05:09:25;25.62;67.64
71098;SHT35;58754;47.622;-2.986;2023-07-31T05:11:51;25.62;67.68
71098;SHT35;58754;47.622;-2.986;2023-07-31T05:14:17;25.63;67.64
71098;SHT35;58754;47.622;-2.986;2023-07-31T05:16:42;25.66;67.64
71098;SHT35;58754;47.622;-2.986;2023-07-31T05:19:08;25.65;67.65
71098;SHT35;58754;47.622;-2.986;2023-07-31T05:21:34;25.63;67.70
71098;SHT35;58754;47.622;-2.986;2023-07-31T05:23:59;25.63;67.69
71098;SHT35;58754;47.622;-2.986;2023-07-31T05:26:25;25.63;67.71
71098;SHT35;58754;47.622;-2.986;2023-07-31T05:28:51;25.66;67.76
71098;SHT35;58754;47.622;-2.986;2023-07-31T05:31:17;25.66;67.72
71098;SHT35;58754;47.622;-2.986;2023-07-31T05:33:42;25.69;67.75
71098;SHT35;58754;47.622;-2.986;2023-07-31T05:36:08;25.67;67.76
71098;SHT35;58754;47.622;-2.986;2023-07-31T05:38:34;25.63;67.79
71098;SHT35;58754;47.622;-2.986;2023-07-31T05:41:00;25.66;67.78
71098;SHT35;58754;47.622;-2.986;2023-07-31T05:43:26;25.65;67.76
71098;SHT35;58754;47.622;-2.986;2023-07-31T05:45:51;25.65;67.76
71098;SHT35;58754;47.622;-2.986;2023-07-31T05:48:17;25.67;67.77
71098;SHT35;58754;47.622;-2.986;2023-07-31T05:50:43;25.67;67.81
71098;SHT35;58754;47.622;-2.986;2023-07-31T05:53:09;25.67;67.89
71098;SHT35;58754;47.622;-2.986;2023-07-31T05:55:35;25.66;67.95
71098;SHT35;58754;47.622;-2.986;2023-07-31T05:58:01;25.67;67.92
71098;SHT35;58754;47.622;-2.986;2023-07-31T06:00:27;25.66;67.90
71098;SHT35;58754;47.622;-2.986;2023-07-31T06:02:53;25.66;67.90
71098;SHT35;58754;47.622;-2.986;2023-07-31T06:05:19;25.66;67.95
71098;SHT35;58754;47.622;-2.986;2023-07-31T06:07:44;25.66;67.98
71098;SHT35;58754;47.622;-2.986;2023-07-31T06:10:10;25.66;67.94
71098;SHT35;58754;47.622;-2.986;2023-07-31T06:12:36;25.69;68.04
71098;SHT35;58754;47.622;-2.986;2023-07-31T06:15:03;25.66;67.91
71098;SHT35;58754;47.622;-2.986;2023-07-31T06:17:29;25.67;68.11
71098;SHT35;58754;47.622;-2.986;2023-07-31T06:19:56;25.66;68.05
71098;SHT35;58754;47.622;-2.986;2023-07-31T06:22:22;25.69;68.03
71098;SHT35;58754;47.622;-2.986;2023-07-31T06:24:47;25.69;68.01
71098;SHT35;58754;47.622;-2.986;2023-07-31T06:27:13;25.67;68.09
71098;SHT35;58754;47.622;-2.986;2023-07-31T06:29:39;25.67;67.96
71098;SHT35;58754;47.622;-2.986;2023-07-31T06:32:04;25.69;68.03
71098;SHT35;58754;47.622;-2.986;2023-07-31T06:34:30;25.71;68.07
71098;SHT35;58754;47.622;-2.986;2023-07-31T06:36:56;25.69;68.08
71098;SHT35;58754;47.622;-2.986;2023-07-31T06:39:22;25.69;68.07
71098;SHT35;58754;47.622;-2.986;2023-07-31T06:41:48;25.67;68.10
71098;SHT35;58754;47.622;-2.986;2023-07-31T06:44:14;25.70;68.05
71098;SHT35;58754;47.622;-2.986;2023-07-31T06:46:39;25.70;68.09
71098;SHT35;58754;47.622;-2.986;2023-07-31T06:49:05;25.70;68.07
71098;SHT35;58754;47.622;-2.986;2023-07-31T06:51:31;25.70;68.08
71098;SHT35;58754;47.622;-2.986;2023-07-31T06:53:57;25.69;68.03
71098;SHT35;58754;47.622;-2.986;2023-07-31T06:56:23;25.69;68.05
71098;SHT35;58754;47.622;-2.986;2023-07-31T06:58:49;25.70;68.21
71098;SHT35;58754;47.622;-2.986;2023-07-31T07:01:15;25.69;68.18
71098;SHT35;58754;47.622;-2.986;2023-07-31T07:03:40;25.73;68.19
71098;SHT35;58754;47.622;-2.986;2023-07-31T07:06:06;25.69;68.36
71098;SHT35;58754;47.622;-2.986;2023-07-31T07:08:32;25.71;68.25
71098;SHT35;58754;47.622;-2.986;2023-07-31T07:10:58;25.70;68.23
71098;SHT35;58754;47.622;-2.986;2023-07-31T07:13:24;25.70;68.45
71098;SHT35;58754;47.622;-2.986;2023-07-31T07:15:50;25.70;68.42
71098;SHT35;58754;47.622;-2.986;2023-07-31T07:18:16;25.69;68.32
71098;SHT35;58754;47.622;-2.986;2023-07-31T07:20:52;25.69;68.23
71098;SHT35;58754;47.622;-2.986;2023-07-31T07:23:19;25.73;68.25
71098;SHT35;58754;47.622;-2.986;2023-07-31T07:25:46;25.71;68.20
71098;SHT35;58754;47.622;-2.986;2023-07-31T07:28:13;25.71;68.14
71098;SHT35;58754;47.622;-2.986;2023-07-31T07:30:38;25.70;68.13
71098;SHT35;58754;47.622;-2.986;2023-07-31T07:33:04;25.73;68.26
71098;SHT35;58754;47.622;-2.986;2023-07-31T07:35:33;25.73;67.00
71098;SHT35;58754;47.622;-2.986;2023-07-31T07:37:59;25.74;66.93
71098;SHT35;58754;47.622;-2.986;2023-07-31T07:40:26;25.71;66.22
71098;SHT35;58754;47.622;-2.986;2023-07-31T07:42:51;25.73;66.19
71098;SHT35;58754;47.622;-2.986;2023-07-31T07:45:17;25.69;66.48
71098;SHT35;58754;47.622;-2.986;2023-07-31T07:47:43;25.69;66.47
71098;SHT35;58754;47.622;-2.986;2023-07-31T07:50:09;25.69;66.38
71098;SHT35;58754;47.622;-2.986;2023-07-31T07:52:35;25.71;66.30
71098;SHT35;58754;47.622;-2.986;2023-07-31T07:55:00;25.67;66.18
71098;SHT35;58754;47.622;-2.986;2023-07-31T07:57:27;25.67;65.99
71098;SHT35;58754;47.622;-2.986;2023-07-31T07:59:52;25.66;65.68
71098;SHT35;58754;47.622;-2.986;2023-07-31T08:02:18;25.65;65.44
71098;SHT35;58754;47.622;-2.986;2023-07-31T08:04:44;25.63;65.27
71098;SHT35;58754;47.622;-2.986;2023-07-31T08:07:13;25.59;65.13
71098;SHT35;58754;47.622;-2.986;2023-07-31T08:09:39;25.53;65.03
71098;SHT35;58754;47.622;-2.986;2023-07-31T08:12:08;25.52;65.02
71098;SHT35;58754;47.622;-2.986;2023-07-31T08:14:33;25.52;65.07
71098;SHT35;58754;47.622;-2.986;2023-07-31T08:17:00;25.53;65.09
71098;SHT35;58754;47.622;-2.986;2023-07-31T08:19:26;25.54;65.03
71098;SHT35;58754;47.622;-2.986;2023-07-31T08:21:51;25.52;65.13
71098;SHT35;58754;47.622;-2.986;2023-07-31T08:24:17;25.49;65.10
71098;SHT35;58754;47.622;-2.986;2023-07-31T08:26:43;25.52;65.09
71098;SHT35;58754;47.622;-2.986;2023-07-31T08:29:08;25.47;65.03
71098;SHT35;58754;47.622;-2.986;2023-07-31T08:31:34;25.46;65.01
71098;SHT35;58754;47.622;-2.986;2023-07-31T08:34:00;25.46;65.23
71098;SHT35;58754;47.622;-2.986;2023-07-31T08:36:26;25.46;65.27
71098;SHT35;58754;47.622;-2.986;2023-07-31T08:38:52;25.47;65.25
71098;SHT35;58754;47.622;-2.986;2023-07-31T08:41:17;25.47;65.27
71098;SHT35;58754;47.622;-2.986;2023-07-31T08:43:45;25.46;65.29
71098;SHT35;58754;47.622;-2.986;2023-07-31T08:46:11;25.47;65.66
71098;SHT35;58754;47.622;-2.986;2023-07-31T08:48:39;25.49;65.69
71098;SHT35;58754;47.622;-2.986;2023-07-31T08:51:06;25.49;65.75
71098;SHT35;58754;47.622;-2.986;2023-07-31T08:53:32;25.50;65.91
71098;SHT35;58754;47.622;-2.986;2023-07-31T08:55:58;25.53;66.15
71098;SHT35;58754;47.622;-2.986;2023-07-31T08:58:25;25.54;66.00
71098;SHT35;58754;47.622;-2.986;2023-07-31T09:00:54;25.60;66.27
71098;SHT35;58754;47.622;-2.986;2023-07-31T09:03:23;25.58;66.02
71098;SHT35;58754;47.622;-2.986;2023-07-31T09:05:50;25.60;66.10
71098;SHT35;58754;47.622;-2.986;2023-07-31T09:08:21;25.62;66.12
71098;SHT35;58754;47.622;-2.986;2023-07-31T09:10:47;25.67;66.57
71098;SHT35;58754;47.622;-2.986;2023-07-31T09:13:14;25.71;66.41
71098;SHT35;58754;47.622;-2.986;2023-07-31T09:15:41;25.74;66.46
71098;SHT35;58754;47.622;-2.986;2023-07-31T09:18:08;25.79;66.49
71098;SHT35;58754;47.622;-2.986;2023-07-31T09:20:34;25.80;66.45
71098;SHT35;58754;47.622;-2.986;2023-07-31T09:23:10;25.83;66.34
71098;SHT35;58754;47.622;-2.986;2023-07-31T09:25:37;25.87;66.15
71098;SHT35;58754;47.622;-2.986;2023-07-31T09:28:07;25.90;66.78
71098;SHT35;58754;47.622;-2.986;2023-07-31T09:30:50;25.94;66.32
71098;SHT35;58754;47.622;-2.986;2023-07-31T09:33:18;26.00;66.14
71098;SHT35;58754;47.622;-2.986;2023-07-31T09:35:44;26.05;66.10
71098;SHT35;58754;47.622;-2.986;2023-07-31T09:38:12;26.09;65.88
71098;SHT35;58754;47.622;-2.986;2023-07-31T09:40:39;26.15;65.82
71098;SHT35;58754;47.622;-2.986;2023-07-31T09:43:13;26.15;65.70
71098;SHT35;58754;47.622;-2.986;2023-07-31T09:45:43;26.20;65.58
71098;SHT35;58754;47.622;-2.986;2023-07-31T09:48:13;26.24;65.56
71098;SHT35;58754;47.622;-2.986;2023-07-31T09:50:44;26.26;65.50
71098;SHT35;58754;47.622;-2.986;2023-07-31T09:53:10;26.28;65.43
71098;SHT35;58754;47.622;-2.986;2023-07-31T09:55:37;26.31;65.39
71098;SHT35;58754;47.622;-2.986;2023-07-31T09:58:10;26.31;65.39
71098;SHT35;58754;47.622;-2.986;2023-07-31T10:00:36;26.35;65.32
71098;SHT35;58754;47.622;-2.986;2023-07-31T10:03:09;26.36;65.10
71098;SHT35;58754;47.622;-2.986;2023-07-31T10:05:56;26.38;64.99
71098;SHT35;58754;47.622;-2.986;2023-07-31T10:08:27;26.35;64.80
71098;SHT35;58754;47.622;-2.986;2023-07-31T10:10:59;26.38;64.69
71098;SHT35;58754;47.622;-2.986;2023-07-31T10:13:27;26.39;64.52
71098;SHT35;58754;47.622;-2.986;2023-07-31T10:15:54;26.36;64.42
71098;SHT35;58754;47.622;-2.986;2023-07-31T10:18:20;26.38;64.33
71098;SHT35;58754;47.622;-2.986;2023-07-31T10:20:47;26.36;64.25
71098;SHT35;58754;47.622;-2.986;2023-07-31T10:23:14;26.35;64.22
71098;SHT35;58754;47.622;-2.986;2023-07-31T10:25:42;26.36;64.22
71098;SHT35;58754;47.622;-2.986;2023-07-31T10:28:10;26.36;64.16
71098;SHT35;58754;47.622;-2.986;2023-07-31T10:30:38;26.35;64.16
71098;SHT35;58754;47.622;-2.986;2023-07-31T10:33:05;26.33;64.08
71098;SHT35;58754;47.622;-2.986;2023-07-31T10:35:31;26.31;64.10
71098;SHT35;58754;47.622;-2.986;2023-07-31T10:38:12;26.33;64.11
71098;SHT35;58754;47.622;-2.986;2023-07-31T10:40:38;26.32;64.08
71098;SHT35;58754;47.622;-2.986;2023-07-31T10:43:05;26.29;64.14
71098;SHT35;58754;47.622;-2.986;2023-07-31T10:45:37;26.31;64.17
71098;SHT35;58754;47.622;-2.986;2023-07-31T10:48:17;26.25;64.19
71098;SHT35;58754;47.622;-2.986;2023-07-31T10:50:56;26.29;64.24
71098;SHT35;58754;47.622;-2.986;2023-07-31T10:53:28;26.26;64.22
71098;SHT35;58754;47.622;-2.986;2023-07-31T10:56:04;26.26;64.19
71098;SHT35;58754;47.622;-2.986;2023-07-31T10:58:30;26.25;64.17
71098;SHT35;58754;47.622;-2.986;2023-07-31T11:01:01;26.26;64.18
71098;SHT35;58754;47.622;-2.986;2023-07-31T11:03:45;26.26;64.23
71098;SHT35;58754;47.622;-2.986;2023-07-31T11:06:13;26.26;64.24
71098;SHT35;58754;47.622;-2.986;2023-07-31T11:08:44;26.25;64.52
71098;SHT35;58754;47.622;-2.986;2023-07-31T11:11:11;26.24;64.74
71098;SHT35;58754;47.622;-2.986;2023-07-31T11:16:19;26.24;64.78
71098;SHT35;58754;47.622;-2.986;2023-07-31T11:18:47;26.22;64.80
71098;SHT35;58754;47.622;-2.986;2023-07-31T11:21:18;26.22;64.86
71098;SHT35;58754;47.622;-2.986;2023-07-31T11:23:48;26.20;64.82
71098;SHT35;58754;47.622;-2.986;2023-07-31T11:26:15;26.20;64.93
71098;SHT35;58754;47.622;-2.986;2023-07-31T11:28:40;26.20;65.06
71098;SHT35;58754;47.622;-2.986;2023-07-31T11:31:10;26.20;65.16
71098;SHT35;58754;47.622;-2.986;2023-07-31T11:33:36;26.15;65.56
71098;SHT35;58754;47.622;-2.986;2023-07-31T11:36:02;26.08;65.90
71098;SHT35;58754;47.622;-2.986;2023-07-31T11:38:32;26.02;66.02
71098;SHT35;58754;47.622;-2.986;2023-07-31T11:41:03;25.98;66.28
71098;SHT35;58754;47.622;-2.986;2023-07-31T11:43:29;25.90;66.29
71098;SHT35;58754;47.622;-2.986;2023-07-31T11:45:59;25.86;66.36
71098;SHT35;58754;47.622;-2.986;2023-07-31T11:48:26;25.83;66.34
71098;SHT35;58754;47.622;-2.986;2023-07-31T11:50:54;25.80;66.50
71098;SHT35;58754;47.622;-2.986;2023-07-31T11:56:00;25.79;66.88
71098;SHT35;58754;47.622;-2.986;2023-07-31T11:58:28;25.76;66.69
71098;SHT35;58754;47.622;-2.986;2023-07-31T12:00:56;25.79;66.78
71098;SHT35;58754;47.622;-2.986;2023-07-31T12:03:22;25.77;66.99
71098;SHT35;58754;47.622;-2.986;2023-07-31T12:05:48;25.79;67.56
71098;SHT35;58754;47.622;-2.986;2023-07-31T12:08:14;25.77;67.38
71098;SHT35;58754;47.622;-2.986;2023-07-31T12:10:40;25.77;67.48
71098;SHT35;58754;47.622;-2.986;2023-07-31T12:13:09;25.80;67.56
71098;SHT35;58754;47.622;-2.986;2023-07-31T12:15:44;25.79;67.84
71098;SHT35;58754;47.622;-2.986;2023-07-31T12:18:11;25.80;67.71
71098;SHT35;58754;47.622;-2.986;2023-07-31T12:20:45;25.81;67.87
71098;SHT35;58754;47.622;-2.986;2023-07-31T12:23:17;25.79;67.94
71098;SHT35;58754;47.622;-2.986;2023-07-31T12:25:43;25.83;67.97
71098;SHT35;58754;47.622;-2.986;2023-07-31T12:28:09;25.81;68.03
71098;SHT35;58754;47.622;-2.986;2023-07-31T12:30:39;25.84;68.05
71098;SHT35;58754;47.622;-2.986;2023-07-31T12:33:10;25.81;68.10
71098;SHT35;58754;47.622;-2.986;2023-07-31T12:35:38;25.84;68.17
71098;SHT35;58754;47.622;-2.986;2023-07-31T12:38:06;25.81;68.13
71098;SHT35;58754;47.622;-2.986;2023-07-31T12:40:32;25.84;68.19
71098;SHT35;58754;47.622;-2.986;2023-07-31T12:43:00;25.86;68.38
71098;SHT35;58754;47.622;-2.986;2023-07-31T12:45:27;25.86;68.27
71098;SHT35;58754;47.622;-2.986;2023-07-31T12:47:52;25.84;68.60
71098;SHT35;58754;47.622;-2.986;2023-07-31T12:50:18;25.87;68.65
71098;SHT35;58754;47.622;-2.986;2023-07-31T12:52:44;25.84;68.70
71098;SHT35;58754;47.622;-2.986;2023-07-31T12:55:10;25.87;68.77
71098;SHT35;58754;47.622;-2.986;2023-07-31T12:57:36;25.84;68.49
71098;SHT35;58754;47.622;-2.986;2023-07-31T13:00:03;25.81;68.15
71098;SHT35;58754;47.622;-2.986;2023-07-31T13:02:29;25.83;68.04
71098;SHT35;58754;47.622;-2.986;2023-07-31T13:04:54;25.80;67.87
71098;SHT35;58754;47.622;-2.986;2023-07-31T13:07:22;25.79;67.48
71098;SHT35;58754;47.622;-2.986;2023-07-31T13:09:48;25.76;67.53
71098;SHT35;58754;47.622;-2.986;2023-07-31T13:12:14;25.73;67.39
71098;SHT35;58754;47.622;-2.986;2023-07-31T13:14:40;25.71;67.15
71098;SHT35;58754;47.622;-2.986;2023-07-31T13:17:05;25.67;67.19
71098;SHT35;58754;47.622;-2.986;2023-07-31T13:19:31;25.63;67.25
71098;SHT35;58754;47.622;-2.986;2023-07-31T13:21:57;25.63;67.32
71098;SHT35;58754;47.622;-2.986;2023-07-31T13:24:23;25.59;67.30
71098;SHT35;58754;47.622;-2.986;2023-07-31T13:26:49;25.56;67.37
71098;SHT35;58754;47.622;-2.986;2023-07-31T13:29:15;25.56;67.30
71098;SHT35;58754;47.622;-2.986;2023-07-31T13:31:40;25.56;67.27
71098;SHT35;58754;47.622;-2.986;2023-07-31T13:34:06;25.56;67.24
71098;SHT35;58754;47.622;-2.986;2023-07-31T13:36:32;25.54;67.27
71098;SHT35;58754;47.622;-2.986;2023-07-31T13:38:59;25.54;67.27
71098;SHT35;58754;47.622;-2.986;2023-07-31T13:41:26;25.52;67.21
71098;SHT35;58754;47.622;-2.986;2023-07-31T13:43:52;25.53;67.22
71098;SHT35;58754;47.622;-2.986;2023-07-31T13:46:17;25.52;67.27
71098;SHT35;58754;47.622;-2.986;2023-07-31T13:48:43;25.52;67.31
71098;SHT35;58754;47.622;-2.986;2023-07-31T13:51:09;25.50;67.30
71098;SHT35;58754;47.622;-2.986;2023-07-31T13:53:34;25.50;67.23
71098;SHT35;58754;47.622;-2.986;2023-07-31T13:56:00;25.50;67.21
71098;SHT35;58754;47.622;-2.986;2023-07-31T13:58:26;25.50;67.26
71098;SHT35;58754;47.622;-2.986;2023-07-31T14:00:52;25.47;67.20
71098;SHT35;58754;47.622;-2.986;2023-07-31T14:03:17;25.47;67.19
71098;SHT35;58754;47.622;-2.986;2023-07-31T14:05:44;25.49;67.28
71098;SHT35;58754;47.622;-2.986;2023-07-31T14:08:09;25.47;67.26
71098;SHT35;58754;47.622;-2.986;2023-07-31T14:10:35;25.52;67.29
71098;SHT35;58754;47.622;-2.986;2023-07-31T14:13:01;25.49;67.23
71098;SHT35;58754;47.622;-2.986;2023-07-31T14:15:27;25.50;67.44
71098;SHT35;58754;47.622;-2.986;2023-07-31T14:17:52;25.50;67.45
71098;SHT35;58754;47.622;-2.986;2023-07-31T14:20:18;25.54;67.43
71098;SHT35;58754;47.622;-2.986;2023-07-31T14:22:44;25.54;67.49
71098;SHT35;58754;47.622;-2.986;2023-07-31T14:25:10;25.58;67.45
71098;SHT35;58754;47.622;-2.986;2023-07-31T14:27:36;25.60;67.48
71098;SHT35;58754;47.622;-2.986;2023-07-31T14:30:02;25.70;67.43
71098;SHT35;58754;47.622;-2.986;2023-07-31T14:32:28;25.74;67.25
71098;SHT35;58754;47.622;-2.986;2023-07-31T14:34:54;25.83;66.95
71098;SHT35;58754;47.622;-2.986;2023-07-31T14:37:20;25.93;66.93
71098;SHT35;58754;47.622;-2.986;2023-07-31T14:39:46;26.00;66.69
71098;SHT35;58754;47.622;-2.986;2023-07-31T14:42:12;26.07;66.49
71098;SHT35;58754;47.622;-2.986;2023-07-31T14:44:38;26.11;66.54
71098;SHT35;58754;47.622;-2.986;2023-07-31T14:47:04;26.17;66.39
71098;SHT35;58754;47.622;-2.986;2023-07-31T14:49:29;26.22;66.28
71098;SHT35;58754;47.622;-2.986;2023-07-31T14:51:55;26.25;66.09
71098;SHT35;58754;47.622;-2.986;2023-07-31T14:54:21;26.31;66.14
71098;SHT35;58754;47.622;-2.986;2023-07-31T14:56:46;26.35;66.01
71098;SHT35;58754;47.622;-2.986;2023-07-31T14:59:12;26.39;65.89
71098;SHT35;58754;47.622;-2.986;2023-07-31T15:01:38;26.41;65.64
71098;SHT35;58754;47.622;-2.986;2023-07-31T15:04:04;26.46;65.39
71098;SHT35;58754;47.622;-2.986;2023-07-31T15:06:30;26.46;65.27
71098;SHT35;58754;47.622;-2.986;2023-07-31T15:08:55;26.46;65.23
71098;SHT35;58754;47.622;-2.986;2023-07-31T15:11:21;26.46;65.20
71098;SHT35;58754;47.622;-2.986;2023-07-31T15:13:47;26.45;65.16
71098;SHT35;58754;47.622;-2.986;2023-07-31T15:16:13;26.45;65.11
71098;SHT35;58754;47.622;-2.986;2023-07-31T15:18:38;26.45;65.31
71098;SHT35;58754;47.622;-2.986;2023-07-31T15:21:04;26.46;65.13
71098;SHT35;58754;47.622;-2.986;2023-07-31T15:23:32;26.46;65.06